Time,TemperatureF,DewpointF,PressureIn,WindDirection,WindDirectionDegrees,WindSpeedMPH,WindSpeedGustMPH,Humidity,HourlyPrecipIn,Conditions,Clouds,dailyrainin,SolarRadiationWatts/m^2,SoftwareType,DateUTC
2013-07-19 00:02:00,74.0,64.0,-100.00,East,92,1.0,5.0,70,0.00,,,0.00,0.000000,,2013-07-19 04:02:00,
2013-07-19 00:33:00,72.0,62.0,-100.00,ESE,122,1.0,3.0,72,0.00,,,0.00,0.000000,,2013-07-19 04:33:00,
2013-07-19 00:44:00,72.0,62.0,-100.00,ESE,122,1.0,3.0,72,0.00,,,0.00,0.000000,,2013-07-19 04:44:00,
2013-07-19 00:52:00,72.0,62.0,-100.00,ESE,122,1.0,3.0,72,0.00,,,0.00,0.000000,,2013-07-19 04:52:00,
2013-07-19 01:02:00,72.0,62.0,-100.00,ESE,122,1.0,3.0,72,0.00,,,0.00,0.000000,,2013-07-19 05:02:00,
2013-07-19 01:43:00,77.0,66.0,-100.00,SSW,204,4.0,6.0,70,0.00,,,0.00,0.000000,,2013-07-19 05:43:00,
2013-07-19 01:53:00,77.0,66.0,-100.00,SSW,204,4.0,6.0,70,0.00,,,0.00,0.000000,,2013-07-19 05:53:00,
2013-07-19 02:01:00,77.0,66.0,-100.00,SSW,204,4.0,6.0,70,0.00,,,0.00,0.000000,,2013-07-19 06:01:00,
2013-07-19 02:43:00,76.0,66.0,-100.00,South,188,3.0,8.0,72,0.00,,,0.00,0.000000,,2013-07-19 06:43:00,
2013-07-19 02:53:00,76.0,66.0,-100.00,South,188,3.0,8.0,72,0.00,,,0.00,0.000000,,2013-07-19 06:53:00,
2013-07-19 03:01:00,76.0,66.0,-100.00,South,188,3.0,8.0,72,0.00,,,0.00,0.000000,,2013-07-19 07:01:00,
2013-07-19 03:33:00,75.0,72.0,-100.00,SSW,202,4.0,6.0,91,0.00,,,-99.99,0.000000,,2013-07-19 07:33:00,
2013-07-19 03:43:00,75.0,72.0,-100.00,SSW,202,4.0,6.0,91,0.00,,,-99.99,0.000000,,2013-07-19 07:43:00,
2013-07-19 03:53:00,75.0,72.0,-100.00,SSW,202,4.0,6.0,91,0.00,,,-99.99,0.000000,,2013-07-19 07:53:00,
2013-07-19 04:01:00,75.0,72.0,-100.00,SSW,202,4.0,6.0,91,0.00,,,-99.99,0.000000,,2013-07-19 08:01:00,
2013-07-19 04:43:00,74.0,71.0,-100.00,South,191,3.0,5.0,91,0.00,,,-99.99,0.000000,,2013-07-19 08:43:00,
2013-07-19 04:52:00,74.0,71.0,-100.00,South,191,3.0,5.0,91,0.00,,,-99.99,0.000000,,2013-07-19 08:52:00,
2013-07-19 05:02:00,74.0,71.0,-100.00,South,191,3.0,5.0,91,0.00,,,-99.99,0.000000,,2013-07-19 09:02:00,
2013-07-19 05:43:00,72.0,72.0,-100.00,South,173,2.0,4.0,100,0.00,,,-99.99,0.000000,,2013-07-19 09:43:00,
2013-07-19 05:52:00,72.0,72.0,-100.00,South,173,2.0,4.0,100,0.00,,,-99.99,0.000000,,2013-07-19 09:52:00,
2013-07-19 06:01:00,72.0,72.0,-100.00,South,173,2.0,4.0,100,0.00,,,-99.99,0.000000,,2013-07-19 10:01:00,
2013-07-19 06:33:00,72.0,72.0,-100.00,South,186,2.0,4.0,100,0.00,,,-99.99,2.000000,,2013-07-19 10:33:00,
2013-07-19 06:43:00,72.0,72.0,-100.00,South,186,2.0,4.0,100,0.00,,,-99.99,2.000000,,2013-07-19 10:43:00,
2013-07-19 06:52:00,72.0,72.0,-100.00,South,186,2.0,4.0,100,0.00,,,-99.99,2.000000,,2013-07-19 10:52:00,
2013-07-19 07:02:00,72.0,72.0,-100.00,South,186,2.0,4.0,100,0.00,,,-99.99,2.000000,,2013-07-19 11:02:00,
2013-07-19 07:43:00,75.0,75.0,-100.00,SSW,199,3.0,8.0,100,0.00,,,0.00,53.000000,,2013-07-19 11:43:00,
2013-07-19 07:52:00,75.0,75.0,-100.00,SSW,199,3.0,8.0,100,0.00,,,0.00,53.000000,,2013-07-19 11:52:00,
2013-07-19 08:01:00,75.0,75.0,-100.00,SSW,199,3.0,8.0,100,0.00,,,0.00,53.000000,,2013-07-19 12:01:00,
2013-07-19 08:53:00,79.0,77.0,-100.00,SW,218,4.0,7.0,94,0.00,,,0.00,215.000000,,2013-07-19 12:53:00,
2013-07-19 09:02:00,79.0,77.0,-100.00,SW,218,4.0,7.0,94,0.00,,,0.00,215.000000,,2013-07-19 13:02:00,
2013-07-19 09:43:00,82.0,77.0,-100.00,WSW,246,2.0,7.0,86,0.00,,,0.00,386.000000,,2013-07-19 13:43:00,
2013-07-19 09:53:00,82.0,77.0,-100.00,WSW,246,2.0,7.0,86,0.00,,,0.00,386.000000,,2013-07-19 13:53:00,
2013-07-19 10:02:00,82.0,77.0,-100.00,WSW,246,2.0,7.0,86,0.00,,,0.00,386.000000,,2013-07-19 14:02:00,
2013-07-19 10:43:00,84.0,76.0,-100.00,WSW,256,3.0,6.0,77,0.00,,,0.00,544.000000,,2013-07-19 14:43:00,
2013-07-19 10:53:00,84.0,76.0,-100.00,WSW,256,3.0,6.0,77,0.00,,,0.00,544.000000,,2013-07-19 14:53:00,
2013-07-19 11:02:00,84.0,76.0,-100.00,WSW,256,3.0,6.0,77,0.00,,,0.00,544.000000,,2013-07-19 15:02:00,
2013-07-19 11:43:00,87.0,76.0,-100.00,SW,234,3.0,8.0,70,0.00,,,0.00,677.000000,,2013-07-19 15:43:00,
2013-07-19 11:52:00,87.0,76.0,-100.00,SW,234,3.0,8.0,70,0.00,,,0.00,677.000000,,2013-07-19 15:52:00,
2013-07-19 12:01:00,87.0,76.0,-100.00,SW,234,3.0,8.0,70,0.00,,,0.00,677.000000,,2013-07-19 16:01:00,
2013-07-19 12:43:00,88.0,76.0,-100.00,SSW,205,5.0,9.0,68,0.00,,,0.00,693.000000,,2013-07-19 16:43:00,
2013-07-19 12:53:00,88.0,76.0,-100.00,SSW,205,5.0,9.0,68,0.00,,,0.00,693.000000,,2013-07-19 16:53:00,
2013-07-19 13:02:00,88.0,76.0,-100.00,SSW,205,5.0,9.0,68,0.00,,,0.00,693.000000,,2013-07-19 17:02:00,
2013-07-19 13:43:00,90.0,76.0,-100.00,SW,232,4.0,11.0,64,0.00,,,0.00,726.000000,,2013-07-19 17:43:00,
2013-07-19 13:52:00,90.0,76.0,-100.00,SW,232,4.0,11.0,64,0.00,,,0.00,726.000000,,2013-07-19 17:52:00,
2013-07-19 14:01:00,90.0,76.0,-100.00,SW,232,4.0,11.0,64,0.00,,,0.00,726.000000,,2013-07-19 18:01:00,
2013-07-19 14:43:00,89.0,76.0,-100.00,SSW,199,4.0,12.0,66,0.00,,,0.00,489.000000,,2013-07-19 18:43:00,
2013-07-19 14:52:00,89.0,76.0,-100.00,SSW,199,4.0,12.0,66,0.00,,,0.00,489.000000,,2013-07-19 18:52:00,
2013-07-19 15:01:00,89.0,76.0,-100.00,SSW,199,4.0,12.0,66,0.00,,,0.00,489.000000,,2013-07-19 19:01:00,
2013-07-19 15:43:00,90.0,73.0,-100.00,SSW,195,6.0,11.0,57,0.00,,,0.00,651.000000,,2013-07-19 19:43:00,
2013-07-19 15:52:00,90.0,73.0,-100.00,SSW,195,6.0,11.0,57,0.00,,,0.00,651.000000,,2013-07-19 19:52:00,
2013-07-19 16:02:00,90.0,73.0,-100.00,SSW,195,6.0,11.0,57,0.00,,,0.00,651.000000,,2013-07-19 20:02:00,
2013-07-19 16:33:00,91.0,73.0,-100.00,SSW,200,6.0,11.0,56,0.00,,,0.00,615.000000,,2013-07-19 20:33:00,
2013-07-19 16:43:00,91.0,73.0,-100.00,SSW,200,6.0,11.0,56,0.00,,,0.00,615.000000,,2013-07-19 20:43:00,
2013-07-19 16:52:00,91.0,73.0,-100.00,SSW,200,6.0,11.0,56,0.00,,,0.00,615.000000,,2013-07-19 20:52:00,
2013-07-19 17:01:00,91.0,73.0,-100.00,SSW,200,6.0,11.0,56,0.00,,,0.00,615.000000,,2013-07-19 21:01:00,
2013-07-19 17:32:00,82.0,71.0,-100.00,SSW,200,5.0,10.0,70,0.00,,,0.00,170.000000,,2013-07-19 21:32:00,
2013-07-19 17:43:00,82.0,71.0,-100.00,SSW,200,5.0,10.0,70,0.00,,,0.00,170.000000,,2013-07-19 21:43:00,
2013-07-19 17:52:00,82.0,71.0,-100.00,SSW,200,5.0,10.0,70,0.00,,,0.00,170.000000,,2013-07-19 21:52:00,
2013-07-19 18:01:00,82.0,71.0,-100.00,SSW,200,5.0,10.0,70,0.00,,,0.00,170.000000,,2013-07-19 22:01:00,
2013-07-19 18:32:00,78.0,69.0,-100.00,South,189,9.0,15.0,73,0.00,,,0.00,82.000000,,2013-07-19 22:32:00,
2013-07-19 18:43:00,78.0,69.0,-100.00,South,189,9.0,15.0,73,0.00,,,0.00,82.000000,,2013-07-19 22:43:00,
2013-07-19 18:52:00,78.0,69.0,-100.00,South,189,9.0,15.0,73,0.00,,,0.00,82.000000,,2013-07-19 22:52:00,
2013-07-19 19:02:00,78.0,69.0,-100.00,South,189,9.0,15.0,73,0.00,,,0.00,82.000000,,2013-07-19 23:02:00,
2013-07-19 19:33:00,82.0,69.0,-100.00,SW,216,7.0,13.0,66,0.00,,,0.00,243.000000,,2013-07-19 23:33:00,
2013-07-19 19:43:00,82.0,69.0,-100.00,SW,216,7.0,13.0,66,0.00,,,0.00,243.000000,,2013-07-19 23:43:00,
2013-07-19 19:52:00,82.0,69.0,-100.00,SW,216,7.0,13.0,66,0.00,,,0.00,243.000000,,2013-07-19 23:52:00,
2013-07-19 20:01:00,82.0,69.0,-100.00,SW,216,7.0,13.0,66,0.00,,,0.00,243.000000,,2013-07-20 00:01:00,
2013-07-19 20:32:00,79.0,70.0,-100.00,SSW,208,8.0,14.0,74,0.00,,,0.00,86.000000,,2013-07-20 00:32:00,
2013-07-19 20:43:00,79.0,70.0,-100.00,SSW,208,8.0,14.0,74,0.00,,,0.00,86.000000,,2013-07-20 00:43:00,
2013-07-19 20:52:00,79.0,70.0,-100.00,SSW,208,8.0,14.0,74,0.00,,,0.00,86.000000,,2013-07-20 00:52:00,
2013-07-19 21:01:00,79.0,70.0,-100.00,SSW,208,8.0,14.0,74,0.00,,,0.00,86.000000,,2013-07-20 01:01:00,
2013-07-19 21:32:00,74.0,66.0,-100.00,SSW,207,5.0,17.0,77,0.00,,,0.00,11.000000,,2013-07-20 01:32:00,
2013-07-19 21:52:00,74.0,66.0,-100.00,SSW,207,5.0,17.0,77,0.00,,,0.00,11.000000,,2013-07-20 01:52:00,
2013-07-19 22:02:00,74.0,66.0,-100.00,SSW,207,5.0,17.0,77,0.00,,,0.00,11.000000,,2013-07-20 02:02:00,
2013-07-19 22:33:00,73.0,70.0,-100.00,South,171,2.0,8.0,90,0.00,,,0.00,0.000000,,2013-07-20 02:33:00,
2013-07-19 22:44:00,73.0,70.0,-100.00,South,171,2.0,8.0,90,0.00,,,0.00,0.000000,,2013-07-20 02:44:00,
2013-07-19 22:52:00,73.0,70.0,-100.00,South,171,2.0,8.0,90,0.00,,,0.00,0.000000,,2013-07-20 02:52:00,
2013-07-19 23:02:00,73.0,70.0,-100.00,South,171,2.0,8.0,90,0.00,,,0.00,0.000000,,2013-07-20 03:02:00,
2013-07-19 23:44:00,74.0,72.0,-100.00,SSW,210,6.0,9.0,92,0.00,,,0.00,0.000000,,2013-07-20 03:44:00,
2013-07-19 23:53:00,74.0,72.0,-100.00,SSW,210,6.0,9.0,92,0.00,,,0.00,0.000000,,2013-07-20 03:53:00,